createdAt,value
2019-06-20T00:03:08.088Z,"    0"
2019-06-20T00:08:04.022Z,"    0"
2019-06-20T00:13:00.918Z,"    0"
2019-06-20T00:17:56.190Z,"    0"
2019-06-20T00:22:53.032Z,"    0"
2019-06-20T00:27:48.943Z,"    0"
2019-06-20T00:32:44.861Z,"    0"
2019-06-20T00:37:40.913Z,"    0"
2019-06-20T00:42:37.755Z,"    0"
2019-06-20T00:47:34.537Z,"    0"
2019-06-20T00:52:30.058Z,"    0"
2019-06-20T00:57:25.871Z,"    0"
2019-06-20T01:02:21.508Z,"    0"
2019-06-20T01:07:18.414Z,"    0"
2019-06-20T01:12:13.994Z,"    0"
2019-06-20T01:17:09.787Z,"    0"
2019-06-20T01:22:06.808Z,"    0"
2019-06-20T01:27:03.273Z,"    0"
2019-06-20T01:31:59.774Z,"    0"
2019-06-20T01:36:55.859Z,"    0"
2019-06-20T01:41:51.891Z,"    0"
2019-06-20T01:46:47.784Z,"    0"
2019-06-20T01:51:43.623Z,"    0"
2019-06-20T01:56:39.646Z,"    0"
2019-06-20T02:01:36.476Z,"    0"
2019-06-20T02:06:32.037Z,"    0"
2019-06-20T02:11:28.003Z,"    0"
2019-06-20T02:16:23.786Z,"    0"
2019-06-20T02:21:19.594Z,"    0"
2019-06-20T02:26:15.327Z,"    0"
2019-06-20T02:31:11.024Z,"    0"
2019-06-20T02:36:07.480Z,"    0"
2019-06-20T02:41:03.319Z,"    0"
2019-06-20T02:45:59.327Z,"    0"
2019-06-20T02:50:55.236Z,"    0"
2019-06-20T02:55:51.695Z,"    0"
2019-06-20T03:00:47.439Z,"    0"
2019-06-20T03:05:44.355Z,"    0"
2019-06-20T03:10:40.664Z,"    0"
2019-06-20T03:15:36.631Z,"    5"
2019-06-20T03:20:32.272Z,"    5"
2019-06-20T03:25:27.865Z,"    5"
2019-06-20T03:30:23.788Z,"    5"
2019-06-20T03:35:19.869Z,"    5"
2019-06-20T03:40:15.697Z,"    5"
2019-06-20T03:45:11.781Z,"   10"
2019-06-20T03:50:07.640Z,"   10"
2019-06-20T03:55:03.449Z,"   15"
2019-06-20T03:59:59.635Z,"   20"
2019-06-20T04:04:55.762Z,"   30"
2019-06-20T04:09:52.867Z,"   30"
2019-06-20T04:14:49.268Z,"   35"
2019-06-20T04:19:44.958Z,"   35"
2019-06-20T04:24:40.834Z,"   30"
2019-06-20T04:29:36.816Z,"   25"
2019-06-20T04:34:32.681Z,"   25"
2019-06-20T04:39:28.541Z,"   30"
2019-06-20T04:44:24.660Z,"   45"
2019-06-20T04:49:20.777Z,"   50"
2019-06-20T04:54:16.714Z,"   50"
2019-06-20T04:59:13.567Z,"   55"
2019-06-20T05:04:09.176Z,"   90"
2019-06-20T05:09:05.375Z,"  105"
2019-06-20T05:14:02.436Z,"  115"
2019-06-20T05:18:58.209Z,"   85"
2019-06-20T05:23:54.137Z,"   75"
2019-06-20T05:28:50.227Z,"   90"
2019-06-20T05:33:46.059Z,"   95"
2019-06-20T05:38:43.262Z,"  105"
2019-06-20T05:43:38.889Z,"  155"
2019-06-20T05:48:35.987Z,"  235"
2019-06-20T05:53:33.523Z,"  160"
2019-06-20T05:58:29.154Z,"  135"
2019-06-20T06:03:24.830Z,"  125"
2019-06-20T06:08:22.189Z,"  160"
2019-06-20T06:13:17.900Z,"  185"
2019-06-20T06:18:14.217Z,"  180"
2019-06-20T06:23:10.258Z,"  165"
2019-06-20T06:28:06.207Z,"  180"
2019-06-20T06:33:02.303Z,"  210"
2019-06-20T06:37:58.436Z,"  330"
2019-06-20T06:42:54.752Z,"  185"
2019-06-20T06:47:50.453Z,"  300"
2019-06-20T06:52:46.614Z,"  260"
2019-06-20T06:57:42.926Z,"  100"
2019-06-20T07:02:38.364Z,"   65"
2019-06-20T07:07:34.030Z,"   85"
2019-06-20T07:12:29.646Z,"  180"
2019-06-20T07:17:25.666Z,"  300"
2019-06-20T07:22:21.912Z,"  300"
2019-06-20T07:27:18.445Z,"  440"
2019-06-20T07:32:14.561Z,"  160"
2019-06-20T07:37:10.966Z,"   95"
2019-06-20T07:42:06.712Z,"  200"
2019-06-20T07:47:16.711Z,"  265"
2019-06-20T07:52:02.442Z,"  250"
2019-06-20T07:56:59.499Z,"  175"
2019-06-20T08:01:55.828Z,"  150"
2019-06-20T08:06:51.304Z,"  150"
2019-06-20T08:11:48.622Z,"  200"
2019-06-20T08:16:44.184Z,"  215"
2019-06-20T08:21:40.109Z,"   95"
2019-06-20T08:26:36.776Z,"   55"
2019-06-20T08:31:33.193Z,"   60"
2019-06-20T08:36:28.543Z,"  135"
2019-06-20T08:41:24.458Z,"  200"
2019-06-20T08:46:21.264Z," 1195"
2019-06-20T08:51:20.632Z," 1350"
2019-06-20T08:56:19.568Z," 1110"
2019-06-20T09:01:16.264Z,"  410"
2019-06-20T09:06:13.798Z," 1445"
2019-06-20T09:11:10.999Z,"  535"
2019-06-20T09:16:07.312Z,"  375"
2019-06-20T09:21:02.873Z,"  410"
2019-06-20T09:25:57.636Z,"  265"
2019-06-20T09:30:53.917Z,"  690"
2019-06-20T09:35:53.599Z,"  865"
2019-06-20T09:40:51.361Z,"  580"
2019-06-20T09:45:46.180Z,"  420"
2019-06-20T09:50:42.120Z,"  710"
2019-06-20T09:55:38.285Z,"  305"
2019-06-20T10:00:34.162Z,"  390"
2019-06-20T10:05:30.853Z," 1660"
2019-06-20T10:10:27.186Z,"  390"
2019-06-20T10:15:22.220Z,"  305"
2019-06-20T10:20:17.460Z,"  360"
2019-06-20T10:25:14.539Z,"  335"
2019-06-20T10:30:14.525Z,"  365"
2019-06-20T10:35:09.589Z,"  590"
2019-06-20T10:40:08.137Z,"  660"
2019-06-20T10:45:03.967Z,"  790"
2019-06-20T10:49:59.447Z," 1375"
2019-06-20T10:54:57.957Z," 1645"
2019-06-20T10:59:55.386Z,"  430"
2019-06-20T11:04:50.452Z," 1800"
2019-06-20T11:09:49.367Z," 1850"
2019-06-20T11:14:46.273Z," 1845"
2019-06-20T11:19:41.593Z," 1815"
2019-06-20T11:24:40.925Z," 1930"
2019-06-20T11:29:37.920Z,"  555"
2019-06-20T11:34:34.594Z," 2090"
2019-06-20T11:39:30.091Z,"  310"
2019-06-20T11:44:25.687Z,"  505"
2019-06-20T11:49:21.417Z,"  265"
2019-06-20T11:54:15.777Z,"  485"
2019-06-20T11:59:11.115Z,"  275"
2019-06-20T12:04:09.347Z," 1560"
2019-06-20T12:09:07.384Z,"  580"
2019-06-20T12:14:03.096Z,"  515"
2019-06-20T12:19:01.687Z," 1520"
2019-06-20T12:23:57.584Z,"  335"
2019-06-20T12:28:52.558Z,"  280"
2019-06-20T12:33:49.534Z,"  305"
2019-06-20T12:38:46.283Z,"  475"
2019-06-20T12:43:44.448Z,"  705"
2019-06-20T12:48:41.186Z,"  310"
2019-06-20T12:53:38.686Z,"  295"
2019-06-20T12:58:34.401Z,"  715"
2019-06-20T13:03:30.122Z,"  320"
2019-06-20T13:08:26.182Z,"  485"
2019-06-20T13:13:22.152Z,"  980"
2019-06-20T13:18:18.399Z,"  210"
2019-06-20T13:23:13.574Z,"  115"
2019-06-20T13:28:09.838Z,"  215"
2019-06-20T13:33:05.233Z,"  225"
2019-06-20T13:38:00.995Z,"  220"
2019-06-20T13:42:57.674Z,"  230"
2019-06-20T13:47:53.776Z,"  275"
2019-06-20T13:52:51.286Z,"  325"
2019-06-20T13:57:47.202Z,"  340"
2019-06-20T14:02:45.020Z,"  190"
2019-06-20T14:07:47.023Z,"  205"
2019-06-20T14:12:41.872Z,"  210"
2019-06-20T14:17:38.021Z,"  230"
2019-06-20T14:22:33.697Z,"  240"
2019-06-20T14:27:29.587Z,"  220"
2019-06-20T14:32:25.427Z,"  215"
2019-06-20T14:37:21.627Z,"  275"
2019-06-20T14:42:17.785Z,"  265"
2019-06-20T14:47:13.809Z,"  270"
2019-06-20T14:52:09.839Z,"  235"
2019-06-20T14:57:06.692Z,"  190"
2019-06-20T15:02:02.256Z,"  220"
2019-06-20T15:06:58.160Z,"  160"
2019-06-20T15:11:55.136Z,"  130"
2019-06-20T15:16:51.229Z,"  135"
2019-06-20T15:21:48.486Z,"  180"
2019-06-20T15:26:45.873Z,"  190"
2019-06-20T15:31:43.815Z,"  175"
2019-06-20T15:36:40.513Z,"  170"
2019-06-20T15:41:36.467Z,"  185"
2019-06-20T15:46:33.388Z,"  165"
2019-06-20T15:51:29.977Z,"  150"
2019-06-20T15:56:25.644Z,"  115"
2019-06-20T16:01:21.553Z,"  110"
2019-06-20T16:06:18.276Z,"  105"
2019-06-20T16:11:14.973Z,"  125"
2019-06-20T16:16:10.530Z,"  105"
2019-06-20T16:21:06.631Z,"  110"
2019-06-20T16:26:02.379Z,"  120"
2019-06-20T16:31:08.419Z,"  115"
2019-06-20T16:35:59.412Z,"   90"
2019-06-20T16:40:55.894Z,"   85"
2019-06-20T16:45:51.510Z,"   70"
2019-06-20T16:50:48.358Z,"   75"
2019-06-20T16:55:44.389Z,"   70"
2019-06-20T17:00:40.884Z,"   60"
2019-06-20T17:05:37.501Z,"   50"
2019-06-20T17:10:33.170Z,"   55"
2019-06-20T17:15:28.933Z,"   90"
2019-06-20T17:20:24.756Z,"  105"
2019-06-20T17:25:20.634Z,"  100"
2019-06-20T17:30:16.709Z,"  105"
2019-06-20T17:35:12.871Z,"   80"
2019-06-20T17:40:08.641Z,"   75"
2019-06-20T17:45:04.344Z,"   65"
2019-06-20T17:50:00.405Z,"   60"
2019-06-20T17:54:57.249Z,"   65"
2019-06-20T17:59:53.345Z,"   75"
2019-06-20T18:04:49.293Z,"   60"
2019-06-20T18:09:45.229Z,"   50"
2019-06-20T18:14:40.977Z,"   40"
2019-06-20T18:19:36.900Z,"   35"
2019-06-20T18:24:32.840Z,"   40"
2019-06-20T18:29:29.050Z,"   30"
2019-06-20T18:34:29.977Z,"   25"
2019-06-20T18:39:24.604Z,"   25"
2019-06-20T18:44:20.061Z,"   20"
2019-06-20T18:49:16.086Z,"   15"
2019-06-20T18:54:11.741Z,"   15"
2019-06-20T18:59:08.166Z,"   10"
2019-06-20T19:04:04.124Z,"    5"
2019-06-20T19:08:59.841Z,"   10"
2019-06-20T19:13:56.287Z,"   10"
2019-06-20T19:18:53.627Z,"    5"
2019-06-20T19:23:49.223Z,"    5"
2019-06-20T19:28:46.233Z,"   10"
2019-06-20T19:33:41.875Z,"   10"
2019-06-20T19:38:38.234Z,"    5"
2019-06-20T19:43:34.118Z,"    5"
2019-06-20T19:48:29.916Z,"    0"
2019-06-20T19:53:25.981Z,"    0"
2019-06-20T19:58:22.058Z,"    0"
2019-06-20T20:03:18.055Z,"    0"
2019-06-20T20:08:14.048Z,"    0"
2019-06-20T20:13:09.602Z,"    0"
2019-06-20T20:18:05.604Z,"    0"
2019-06-20T20:23:01.400Z,"    0"
2019-06-20T20:27:57.239Z,"    0"
2019-06-20T20:32:53.453Z,"    0"
2019-06-20T20:37:49.253Z,"    0"
2019-06-20T20:42:45.734Z,"    0"
2019-06-20T20:47:41.705Z,"    0"
2019-06-20T20:52:37.757Z,"    0"
2019-06-20T20:57:34.380Z,"    0"
2019-06-20T21:02:29.937Z,"    0"
2019-06-20T21:07:26.041Z,"    0"
2019-06-20T21:12:21.983Z,"    0"
2019-06-20T21:17:17.694Z,"    0"
2019-06-20T21:22:13.607Z,"    0"
2019-06-20T21:27:10.391Z,"    0"
2019-06-20T21:32:05.848Z,"    0"
2019-06-20T21:37:02.085Z,"    0"
2019-06-20T21:41:57.964Z,"    0"
2019-06-20T21:46:53.962Z,"    0"
2019-06-20T21:51:49.936Z,"    0"
2019-06-20T21:56:45.633Z,"    0"
2019-06-20T22:01:41.734Z,"    0"
2019-06-20T22:06:37.523Z,"    0"
2019-06-20T22:11:34.555Z,"    0"
2019-06-20T22:16:31.249Z,"    0"
2019-06-20T22:21:27.825Z,"    0"
2019-06-20T22:26:23.033Z,"    0"
2019-06-20T22:31:18.865Z,"    0"
2019-06-20T22:36:14.532Z,"    0"
2019-06-20T22:41:11.496Z,"    0"
2019-06-20T22:46:06.742Z,"    0"
2019-06-20T22:51:03.318Z,"    0"
2019-06-20T22:55:59.450Z,"    0"
2019-06-20T23:00:55.279Z,"    0"
2019-06-20T23:05:52.206Z,"    0"
2019-06-20T23:10:47.822Z,"    0"
2019-06-20T23:15:43.718Z,"    0"
2019-06-20T23:20:40.110Z,"    0"
2019-06-20T23:25:35.881Z,"    0"
2019-06-20T23:30:32.558Z,"    0"
2019-06-20T23:35:28.988Z,"    0"
2019-06-20T23:40:24.291Z,"    0"
2019-06-20T23:45:20.175Z,"    0"
2019-06-20T23:50:17.406Z,"    0"
2019-06-20T23:55:12.908Z,"    0"
